sensor_id;sensor_type;location;lat;lon;timestamp;P1;durP1;ratioP1;P2;durP2;ratioP2
12120;SDS011;6124;59.460;17.908;2023-04-24T00:00:15;1.63;;;1.53;;
12120;SDS011;6124;59.460;17.908;2023-04-24T00:02:43;1.97;;;1.67;;
12120;SDS011;6124;59.460;17.908;2023-04-24T00:05:12;1.73;;;1.63;;
12120;SDS011;6124;59.460;17.908;2023-04-24T00:07:40;2.43;;;1.60;;
12120;SDS011;6124;59.460;17.908;2023-04-24T00:10:07;2.00;;;1.80;;
12120;SDS011;6124;59.460;17.908;2023-04-24T00:12:35;3.30;;;1.87;;
12120;SDS011;6124;59.460;17.908;2023-04-24T00:15:03;3.23;;;2.00;;
12120;SDS011;6124;59.460;17.908;2023-04-24T00:17:32;1.97;;;1.50;;
12120;SDS011;6124;59.460;17.908;2023-04-24T00:19:59;1.70;;;1.60;;
12120;SDS011;6124;59.460;17.908;2023-04-24T00:22:30;1.40;;;1.30;;
12120;SDS011;6124;59.460;17.908;2023-04-24T00:24:57;2.80;;;1.40;;
12120;SDS011;6124;59.460;17.908;2023-04-24T00:27:24;2.70;;;1.50;;
12120;SDS011;6124;59.460;17.908;2023-04-24T00:29:52;2.13;;;1.53;;
12120;SDS011;6124;59.460;17.908;2023-04-24T00:32:19;1.23;;;1.13;;
12120;SDS011;6124;59.460;17.908;2023-04-24T00:34:48;1.53;;;1.40;;
12120;SDS011;6124;59.460;17.908;2023-04-24T00:37:15;1.47;;;1.30;;
12120;SDS011;6124;59.460;17.908;2023-04-24T00:39:42;2.13;;;1.50;;
12120;SDS011;6124;59.460;17.908;2023-04-24T00:42:10;1.93;;;1.30;;
12120;SDS011;6124;59.460;17.908;2023-04-24T00:44:37;4.50;;;1.53;;
12120;SDS011;6124;59.460;17.908;2023-04-24T00:47:05;2.97;;;1.60;;
12120;SDS011;6124;59.460;17.908;2023-04-24T00:49:32;2.60;;;1.60;;
12120;SDS011;6124;59.460;17.908;2023-04-24T00:52:01;2.60;;;1.30;;
12120;SDS011;6124;59.460;17.908;2023-04-24T00:54:32;1.47;;;1.03;;
12120;SDS011;6124;59.460;17.908;2023-04-24T00:56:59;2.03;;;1.27;;
12120;SDS011;6124;59.460;17.908;2023-04-24T00:59:27;2.03;;;1.10;;
12120;SDS011;6124;59.460;17.908;2023-04-24T01:01:55;3.17;;;1.20;;
12120;SDS011;6124;59.460;17.908;2023-04-24T01:04:22;2.67;;;1.27;;
12120;SDS011;6124;59.460;17.908;2023-04-24T01:06:51;3.27;;;1.40;;
12120;SDS011;6124;59.460;17.908;2023-04-24T01:09:20;2.50;;;1.57;;
12120;SDS011;6124;59.460;17.908;2023-04-24T01:11:48;2.73;;;1.60;;
12120;SDS011;6124;59.460;17.908;2023-04-24T01:14:16;2.10;;;1.33;;
12120;SDS011;6124;59.460;17.908;2023-04-24T01:16:43;3.00;;;1.40;;
12120;SDS011;6124;59.460;17.908;2023-04-24T01:19:11;2.80;;;1.40;;
12120;SDS011;6124;59.460;17.908;2023-04-24T01:21:38;1.77;;;1.27;;
12120;SDS011;6124;59.460;17.908;2023-04-24T01:24:07;2.77;;;1.57;;
12120;SDS011;6124;59.460;17.908;2023-04-24T01:26:34;3.43;;;1.50;;
12120;SDS011;6124;59.460;17.908;2023-04-24T01:29:02;2.30;;;1.40;;
12120;SDS011;6124;59.460;17.908;2023-04-24T01:31:29;3.27;;;1.70;;
12120;SDS011;6124;59.460;17.908;2023-04-24T01:33:57;3.13;;;1.57;;
12120;SDS011;6124;59.460;17.908;2023-04-24T01:36:24;4.70;;;1.73;;
12120;SDS011;6124;59.460;17.908;2023-04-24T01:38:52;4.17;;;1.80;;
12120;SDS011;6124;59.460;17.908;2023-04-24T01:41:21;4.50;;;2.13;;
12120;SDS011;6124;59.460;17.908;2023-04-24T01:43:49;4.97;;;1.90;;
12120;SDS011;6124;59.460;17.908;2023-04-24T01:46:17;2.67;;;1.60;;
12120;SDS011;6124;59.460;17.908;2023-04-24T01:48:44;2.70;;;1.70;;
12120;SDS011;6124;59.460;17.908;2023-04-24T01:51:12;3.63;;;1.60;;
12120;SDS011;6124;59.460;17.908;2023-04-24T01:53:39;4.03;;;1.77;;
12120;SDS011;6124;59.460;17.908;2023-04-24T01:56:07;4.23;;;1.83;;
12120;SDS011;6124;59.460;17.908;2023-04-24T01:58:36;3.43;;;1.83;;
12120;SDS011;6124;59.460;17.908;2023-04-24T02:01:03;3.43;;;2.03;;
12120;SDS011;6124;59.460;17.908;2023-04-24T02:03:30;6.40;;;2.27;;
12120;SDS011;6124;59.460;17.908;2023-04-24T02:05:58;4.40;;;2.00;;
12120;SDS011;6124;59.460;17.908;2023-04-24T02:08:25;4.20;;;2.00;;
12120;SDS011;6124;59.460;17.908;2023-04-24T02:10:52;3.87;;;1.90;;
12120;SDS011;6124;59.460;17.908;2023-04-24T02:13:20;5.10;;;2.00;;
12120;SDS011;6124;59.460;17.908;2023-04-24T02:15:48;3.97;;;1.50;;
12120;SDS011;6124;59.460;17.908;2023-04-24T02:18:16;6.10;;;2.30;;
12120;SDS011;6124;59.460;17.908;2023-04-24T02:20:43;6.23;;;2.33;;
12120;SDS011;6124;59.460;17.908;2023-04-24T02:23:10;5.73;;;2.20;;
12120;SDS011;6124;59.460;17.908;2023-04-24T02:25:38;5.33;;;2.27;;
12120;SDS011;6124;59.460;17.908;2023-04-24T02:28:06;5.67;;;2.30;;
12120;SDS011;6124;59.460;17.908;2023-04-24T02:30:33;5.83;;;2.07;;
12120;SDS011;6124;59.460;17.908;2023-04-24T02:33:02;4.97;;;2.00;;
12120;SDS011;6124;59.460;17.908;2023-04-24T02:35:29;3.03;;;1.60;;
12120;SDS011;6124;59.460;17.908;2023-04-24T02:37:56;4.60;;;1.80;;
12120;SDS011;6124;59.460;17.908;2023-04-24T02:40:24;4.20;;;1.90;;
12120;SDS011;6124;59.460;17.908;2023-04-24T02:42:51;3.77;;;2.00;;
12120;SDS011;6124;59.460;17.908;2023-04-24T02:45:18;5.40;;;1.90;;
12120;SDS011;6124;59.460;17.908;2023-04-24T02:47:46;4.57;;;2.00;;
12120;SDS011;6124;59.460;17.908;2023-04-24T02:50:14;3.57;;;2.10;;
12120;SDS011;6124;59.460;17.908;2023-04-24T02:52:41;4.43;;;1.97;;
12120;SDS011;6124;59.460;17.908;2023-04-24T02:55:09;3.63;;;2.30;;
12120;SDS011;6124;59.460;17.908;2023-04-24T02:57:36;4.67;;;2.50;;
12120;SDS011;6124;59.460;17.908;2023-04-24T03:00:04;5.33;;;2.50;;
12120;SDS011;6124;59.460;17.908;2023-04-24T03:02:32;4.43;;;2.57;;
12120;SDS011;6124;59.460;17.908;2023-04-24T03:04:59;5.57;;;2.43;;
12120;SDS011;6124;59.460;17.908;2023-04-24T03:07:28;3.77;;;2.20;;
12120;SDS011;6124;59.460;17.908;2023-04-24T03:09:56;4.17;;;2.20;;
12120;SDS011;6124;59.460;17.908;2023-04-24T03:12:23;5.63;;;2.20;;
12120;SDS011;6124;59.460;17.908;2023-04-24T03:14:51;4.47;;;2.50;;
12120;SDS011;6124;59.460;17.908;2023-04-24T03:17:18;3.57;;;2.10;;
12120;SDS011;6124;59.460;17.908;2023-04-24T03:19:45;4.23;;;2.03;;
12120;SDS011;6124;59.460;17.908;2023-04-24T03:22:12;3.53;;;2.10;;
12120;SDS011;6124;59.460;17.908;2023-04-24T03:24:41;4.80;;;2.20;;
12120;SDS011;6124;59.460;17.908;2023-04-24T03:27:08;4.43;;;2.23;;
12120;SDS011;6124;59.460;17.908;2023-04-24T03:29:36;3.47;;;1.80;;
12120;SDS011;6124;59.460;17.908;2023-04-24T03:32:03;4.33;;;2.00;;
12120;SDS011;6124;59.460;17.908;2023-04-24T03:34:30;3.73;;;2.07;;
12120;SDS011;6124;59.460;17.908;2023-04-24T03:36:58;4.67;;;2.13;;
12120;SDS011;6124;59.460;17.908;2023-04-24T03:39:25;3.27;;;1.97;;
12120;SDS011;6124;59.460;17.908;2023-04-24T03:41:54;3.40;;;1.93;;
12120;SDS011;6124;59.460;17.908;2023-04-24T03:44:21;6.53;;;2.43;;
12120;SDS011;6124;59.460;17.908;2023-04-24T03:46:48;7.33;;;2.40;;
12120;SDS011;6124;59.460;17.908;2023-04-24T03:49:15;6.07;;;2.63;;
12120;SDS011;6124;59.460;17.908;2023-04-24T03:51:43;4.77;;;2.50;;
12120;SDS011;6124;59.460;17.908;2023-04-24T03:54:10;5.23;;;2.50;;
12120;SDS011;6124;59.460;17.908;2023-04-24T03:56:38;6.13;;;2.60;;
12120;SDS011;6124;59.460;17.908;2023-04-24T03:59:07;6.00;;;2.33;;
12120;SDS011;6124;59.460;17.908;2023-04-24T04:01:35;6.17;;;2.50;;
12120;SDS011;6124;59.460;17.908;2023-04-24T04:04:02;6.73;;;2.80;;
12120;SDS011;6124;59.460;17.908;2023-04-24T04:06:29;5.63;;;2.77;;
12120;SDS011;6124;59.460;17.908;2023-04-24T04:08:57;6.20;;;3.50;;
12120;SDS011;6124;59.460;17.908;2023-04-24T04:11:24;8.50;;;4.03;;
12120;SDS011;6124;59.460;17.908;2023-04-24T04:13:51;8.80;;;4.07;;
12120;SDS011;6124;59.460;17.908;2023-04-24T04:16:20;9.17;;;4.57;;
12120;SDS011;6124;59.460;17.908;2023-04-24T04:18:47;7.70;;;4.33;;
12120;SDS011;6124;59.460;17.908;2023-04-24T04:21:15;9.17;;;4.77;;
12120;SDS011;6124;59.460;17.908;2023-04-24T04:23:42;7.67;;;4.90;;
12120;SDS011;6124;59.460;17.908;2023-04-24T04:26:10;9.47;;;5.37;;
12120;SDS011;6124;59.460;17.908;2023-04-24T04:28:38;9.23;;;4.83;;
12120;SDS011;6124;59.460;17.908;2023-04-24T04:31:06;8.10;;;4.70;;
12120;SDS011;6124;59.460;17.908;2023-04-24T04:33:36;10.90;;;5.20;;
12120;SDS011;6124;59.460;17.908;2023-04-24T04:36:04;9.63;;;4.80;;
12120;SDS011;6124;59.460;17.908;2023-04-24T04:38:31;9.57;;;5.00;;
12120;SDS011;6124;59.460;17.908;2023-04-24T04:41:00;9.80;;;5.00;;
12120;SDS011;6124;59.460;17.908;2023-04-24T04:43:28;11.73;;;4.90;;
12120;SDS011;6124;59.460;17.908;2023-04-24T04:45:57;8.67;;;4.53;;
12120;SDS011;6124;59.460;17.908;2023-04-24T04:48:25;7.77;;;4.33;;
12120;SDS011;6124;59.460;17.908;2023-04-24T04:50:55;7.47;;;4.27;;
12120;SDS011;6124;59.460;17.908;2023-04-24T04:53:22;9.67;;;4.60;;
12120;SDS011;6124;59.460;17.908;2023-04-24T04:55:50;8.93;;;4.63;;
12120;SDS011;6124;59.460;17.908;2023-04-24T04:58:17;8.63;;;4.97;;
12120;SDS011;6124;59.460;17.908;2023-04-24T05:00:45;7.17;;;4.60;;
12120;SDS011;6124;59.460;17.908;2023-04-24T05:03:12;8.80;;;4.43;;
12120;SDS011;6124;59.460;17.908;2023-04-24T05:05:40;7.40;;;3.73;;
12120;SDS011;6124;59.460;17.908;2023-04-24T05:08:08;8.10;;;4.10;;
12120;SDS011;6124;59.460;17.908;2023-04-24T05:10:36;9.60;;;4.63;;
12120;SDS011;6124;59.460;17.908;2023-04-24T05:13:03;9.27;;;4.50;;
12120;SDS011;6124;59.460;17.908;2023-04-24T05:15:30;6.87;;;4.30;;
12120;SDS011;6124;59.460;17.908;2023-04-24T05:17:57;7.73;;;4.50;;
12120;SDS011;6124;59.460;17.908;2023-04-24T05:20:25;7.47;;;5.13;;
12120;SDS011;6124;59.460;17.908;2023-04-24T05:22:52;10.30;;;4.60;;
12120;SDS011;6124;59.460;17.908;2023-04-24T05:25:21;9.83;;;4.90;;
12120;SDS011;6124;59.460;17.908;2023-04-24T05:27:48;9.17;;;4.80;;
12120;SDS011;6124;59.460;17.908;2023-04-24T05:30:15;7.60;;;4.60;;
12120;SDS011;6124;59.460;17.908;2023-04-24T05:32:43;7.90;;;4.83;;
12120;SDS011;6124;59.460;17.908;2023-04-24T05:35:10;7.60;;;4.57;;
12120;SDS011;6124;59.460;17.908;2023-04-24T05:37:37;9.00;;;5.50;;
12120;SDS011;6124;59.460;17.908;2023-04-24T05:40:05;7.07;;;4.93;;
12120;SDS011;6124;59.460;17.908;2023-04-24T05:42:35;9.43;;;5.00;;
12120;SDS011;6124;59.460;17.908;2023-04-24T05:45:02;11.10;;;5.07;;
12120;SDS011;6124;59.460;17.908;2023-04-24T05:47:30;7.47;;;4.80;;
12120;SDS011;6124;59.460;17.908;2023-04-24T05:49:58;9.33;;;4.90;;
12120;SDS011;6124;59.460;17.908;2023-04-24T05:52:25;9.80;;;5.17;;
12120;SDS011;6124;59.460;17.908;2023-04-24T05:54:52;9.17;;;5.60;;
12120;SDS011;6124;59.460;17.908;2023-04-24T05:57:20;9.27;;;5.43;;
12120;SDS011;6124;59.460;17.908;2023-04-24T05:59:49;10.60;;;5.80;;
12120;SDS011;6124;59.460;17.908;2023-04-24T06:02:16;7.67;;;5.17;;
12120;SDS011;6124;59.460;17.908;2023-04-24T06:04:44;7.07;;;4.63;;
12120;SDS011;6124;59.460;17.908;2023-04-24T06:07:11;7.60;;;4.60;;
12120;SDS011;6124;59.460;17.908;2023-04-24T06:09:39;6.77;;;4.07;;
12120;SDS011;6124;59.460;17.908;2023-04-24T06:12:06;5.77;;;3.97;;
12120;SDS011;6124;59.460;17.908;2023-04-24T06:14:34;5.03;;;3.97;;
12120;SDS011;6124;59.460;17.908;2023-04-24T06:17:02;6.97;;;4.07;;
12120;SDS011;6124;59.460;17.908;2023-04-24T06:19:30;6.13;;;3.63;;
12120;SDS011;6124;59.460;17.908;2023-04-24T06:21:58;5.30;;;3.70;;
12120;SDS011;6124;59.460;17.908;2023-04-24T06:24:26;5.07;;;3.83;;
12120;SDS011;6124;59.460;17.908;2023-04-24T06:26:54;5.17;;;3.70;;
12120;SDS011;6124;59.460;17.908;2023-04-24T06:29:24;5.17;;;3.63;;
12120;SDS011;6124;59.460;17.908;2023-04-24T06:31:51;4.47;;;3.90;;
12120;SDS011;6124;59.460;17.908;2023-04-24T06:34:19;5.57;;;3.90;;
12120;SDS011;6124;59.460;17.908;2023-04-24T06:36:47;5.97;;;3.97;;
12120;SDS011;6124;59.460;17.908;2023-04-24T06:39:14;4.33;;;3.13;;
12120;SDS011;6124;59.460;17.908;2023-04-24T06:41:42;7.00;;;4.37;;
12120;SDS011;6124;59.460;17.908;2023-04-24T06:44:09;8.30;;;4.60;;
12120;SDS011;6124;59.460;17.908;2023-04-24T06:46:36;7.30;;;4.77;;
12120;SDS011;6124;59.460;17.908;2023-04-24T06:49:04;7.50;;;4.30;;
12120;SDS011;6124;59.460;17.908;2023-04-24T06:51:32;8.67;;;4.73;;
12120;SDS011;6124;59.460;17.908;2023-04-24T06:54:00;9.07;;;4.63;;
12120;SDS011;6124;59.460;17.908;2023-04-24T06:56:27;6.20;;;3.77;;
12120;SDS011;6124;59.460;17.908;2023-04-24T06:58:55;7.47;;;3.70;;
12120;SDS011;6124;59.460;17.908;2023-04-24T07:01:22;5.63;;;3.70;;
12120;SDS011;6124;59.460;17.908;2023-04-24T07:03:49;7.43;;;3.40;;
12120;SDS011;6124;59.460;17.908;2023-04-24T07:06:17;4.77;;;3.67;;
12120;SDS011;6124;59.460;17.908;2023-04-24T07:08:49;5.33;;;3.37;;
12120;SDS011;6124;59.460;17.908;2023-04-24T07:11:16;5.03;;;3.60;;
12120;SDS011;6124;59.460;17.908;2023-04-24T07:13:43;5.10;;;3.00;;
12120;SDS011;6124;59.460;17.908;2023-04-24T07:16:10;6.10;;;2.93;;
12120;SDS011;6124;59.460;17.908;2023-04-24T07:18:38;6.23;;;2.90;;
12120;SDS011;6124;59.460;17.908;2023-04-24T07:21:05;3.80;;;2.33;;
12120;SDS011;6124;59.460;17.908;2023-04-24T07:23:33;3.50;;;2.50;;
12120;SDS011;6124;59.460;17.908;2023-04-24T07:26:02;5.47;;;2.83;;
12120;SDS011;6124;59.460;17.908;2023-04-24T07:28:29;5.77;;;2.83;;
12120;SDS011;6124;59.460;17.908;2023-04-24T07:30:57;3.57;;;2.17;;
12120;SDS011;6124;59.460;17.908;2023-04-24T07:33:25;3.90;;;2.23;;
12120;SDS011;6124;59.460;17.908;2023-04-24T07:35:52;3.93;;;2.40;;
12120;SDS011;6124;59.460;17.908;2023-04-24T07:38:19;3.07;;;2.10;;
12120;SDS011;6124;59.460;17.908;2023-04-24T07:40:47;3.77;;;2.10;;
12120;SDS011;6124;59.460;17.908;2023-04-24T07:43:16;5.53;;;2.07;;
12120;SDS011;6124;59.460;17.908;2023-04-24T07:45:43;3.43;;;2.50;;
12120;SDS011;6124;59.460;17.908;2023-04-24T07:48:10;3.23;;;1.80;;
12120;SDS011;6124;59.460;17.908;2023-04-24T07:50:40;2.83;;;1.97;;
12120;SDS011;6124;59.460;17.908;2023-04-24T07:53:07;3.80;;;2.33;;
12120;SDS011;6124;59.460;17.908;2023-04-24T07:55:35;4.73;;;2.60;;
12120;SDS011;6124;59.460;17.908;2023-04-24T07:58:02;4.77;;;2.50;;
12120;SDS011;6124;59.460;17.908;2023-04-24T08:00:31;6.83;;;2.80;;
12120;SDS011;6124;59.460;17.908;2023-04-24T08:02:58;6.00;;;2.77;;
12120;SDS011;6124;59.460;17.908;2023-04-24T08:05:25;3.30;;;2.40;;
12120;SDS011;6124;59.460;17.908;2023-04-24T08:07:53;4.27;;;2.10;;
12120;SDS011;6124;59.460;17.908;2023-04-24T08:10:21;7.13;;;3.10;;
12120;SDS011;6124;59.460;17.908;2023-04-24T08:12:48;6.20;;;2.73;;
12120;SDS011;6124;59.460;17.908;2023-04-24T08:15:16;5.47;;;2.80;;
12120;SDS011;6124;59.460;17.908;2023-04-24T08:17:44;4.40;;;2.73;;
12120;SDS011;6124;59.460;17.908;2023-04-24T08:20:12;4.97;;;2.50;;
12120;SDS011;6124;59.460;17.908;2023-04-24T08:22:39;5.37;;;2.60;;
12120;SDS011;6124;59.460;17.908;2023-04-24T08:25:07;3.47;;;2.47;;
12120;SDS011;6124;59.460;17.908;2023-04-24T08:27:35;4.80;;;3.13;;
12120;SDS011;6124;59.460;17.908;2023-04-24T08:30:04;5.77;;;2.63;;
12120;SDS011;6124;59.460;17.908;2023-04-24T08:32:31;4.57;;;2.90;;
12120;SDS011;6124;59.460;17.908;2023-04-24T08:35:00;4.83;;;2.80;;
12120;SDS011;6124;59.460;17.908;2023-04-24T08:37:27;6.63;;;3.20;;
12120;SDS011;6124;59.460;17.908;2023-04-24T08:39:54;7.33;;;3.10;;
12120;SDS011;6124;59.460;17.908;2023-04-24T08:42:22;7.10;;;3.03;;
12120;SDS011;6124;59.460;17.908;2023-04-24T08:44:49;4.33;;;2.80;;
12120;SDS011;6124;59.460;17.908;2023-04-24T08:47:17;4.53;;;3.00;;
12120;SDS011;6124;59.460;17.908;2023-04-24T08:49:44;6.60;;;2.80;;
12120;SDS011;6124;59.460;17.908;2023-04-24T08:52:13;5.80;;;3.03;;
12120;SDS011;6124;59.460;17.908;2023-04-24T08:54:40;5.07;;;3.07;;
12120;SDS011;6124;59.460;17.908;2023-04-24T08:57:10;4.17;;;2.90;;
12120;SDS011;6124;59.460;17.908;2023-04-24T08:59:38;5.93;;;3.30;;
12120;SDS011;6124;59.460;17.908;2023-04-24T09:02:06;4.73;;;3.23;;
12120;SDS011;6124;59.460;17.908;2023-04-24T09:04:37;5.73;;;2.80;;
12120;SDS011;6124;59.460;17.908;2023-04-24T09:07:04;4.67;;;2.80;;
12120;SDS011;6124;59.460;17.908;2023-04-24T09:09:34;4.60;;;2.73;;
12120;SDS011;6124;59.460;17.908;2023-04-24T09:12:02;4.03;;;2.60;;
12120;SDS011;6124;59.460;17.908;2023-04-24T09:14:29;4.43;;;2.60;;
12120;SDS011;6124;59.460;17.908;2023-04-24T09:16:57;4.07;;;2.63;;
12120;SDS011;6124;59.460;17.908;2023-04-24T09:19:24;4.57;;;2.80;;
12120;SDS011;6124;59.460;17.908;2023-04-24T09:21:52;4.50;;;2.73;;
12120;SDS011;6124;59.460;17.908;2023-04-24T09:24:20;5.77;;;2.50;;
12120;SDS011;6124;59.460;17.908;2023-04-24T09:26:55;3.03;;;2.33;;
12120;SDS011;6124;59.460;17.908;2023-04-24T09:29:23;6.57;;;2.70;;
12120;SDS011;6124;59.460;17.908;2023-04-24T09:31:50;5.13;;;2.97;;
12120;SDS011;6124;59.460;17.908;2023-04-24T09:34:20;4.33;;;2.87;;
12120;SDS011;6124;59.460;17.908;2023-04-24T09:36:48;5.67;;;3.40;;
12120;SDS011;6124;59.460;17.908;2023-04-24T09:39:16;4.87;;;3.00;;
12120;SDS011;6124;59.460;17.908;2023-04-24T09:41:45;4.77;;;2.63;;
12120;SDS011;6124;59.460;17.908;2023-04-24T09:44:14;3.73;;;2.27;;
12120;SDS011;6124;59.460;17.908;2023-04-24T09:46:42;7.33;;;2.93;;
12120;SDS011;6124;59.460;17.908;2023-04-24T09:49:12;4.13;;;2.40;;
12120;SDS011;6124;59.460;17.908;2023-04-24T09:51:40;3.53;;;2.30;;
12120;SDS011;6124;59.460;17.908;2023-04-24T09:54:13;5.60;;;2.50;;
12120;SDS011;6124;59.460;17.908;2023-04-24T09:56:42;7.10;;;2.50;;
12120;SDS011;6124;59.460;17.908;2023-04-24T09:59:10;2.70;;;2.13;;
12120;SDS011;6124;59.460;17.908;2023-04-24T10:01:39;5.80;;;2.40;;
12120;SDS011;6124;59.460;17.908;2023-04-24T10:04:18;2.70;;;2.17;;
12120;SDS011;6124;59.460;17.908;2023-04-24T10:06:46;3.23;;;2.23;;
12120;SDS011;6124;59.460;17.908;2023-04-24T10:09:15;3.37;;;2.33;;
12120;SDS011;6124;59.460;17.908;2023-04-24T10:11:43;4.57;;;2.17;;
12120;SDS011;6124;59.460;17.908;2023-04-24T10:14:12;3.37;;;2.13;;
12120;SDS011;6124;59.460;17.908;2023-04-24T10:16:43;3.37;;;2.33;;
12120;SDS011;6124;59.460;17.908;2023-04-24T10:19:12;4.13;;;2.30;;
12120;SDS011;6124;59.460;17.908;2023-04-24T10:21:40;4.17;;;2.50;;
12120;SDS011;6124;59.460;17.908;2023-04-24T10:24:11;3.20;;;2.37;;
12120;SDS011;6124;59.460;17.908;2023-04-24T10:26:40;4.27;;;2.27;;
12120;SDS011;6124;59.460;17.908;2023-04-24T10:29:08;4.53;;;2.30;;
12120;SDS011;6124;59.460;17.908;2023-04-24T10:31:37;4.03;;;2.20;;
12120;SDS011;6124;59.460;17.908;2023-04-24T10:34:06;3.60;;;2.83;;
12120;SDS011;6124;59.460;17.908;2023-04-24T10:36:34;5.23;;;2.43;;
12120;SDS011;6124;59.460;17.908;2023-04-24T10:39:02;5.57;;;2.50;;
12120;SDS011;6124;59.460;17.908;2023-04-24T10:41:31;5.03;;;2.40;;
12120;SDS011;6124;59.460;17.908;2023-04-24T10:44:05;4.53;;;2.53;;
12120;SDS011;6124;59.460;17.908;2023-04-24T10:46:33;3.20;;;2.50;;
12120;SDS011;6124;59.460;17.908;2023-04-24T10:49:03;3.03;;;2.43;;
12120;SDS011;6124;59.460;17.908;2023-04-24T10:54:25;5.33;;;2.93;;
12120;SDS011;6124;59.460;17.908;2023-04-24T10:56:53;4.60;;;2.60;;
12120;SDS011;6124;59.460;17.908;2023-04-24T10:59:25;5.57;;;2.67;;
12120;SDS011;6124;59.460;17.908;2023-04-24T11:01:52;4.77;;;2.50;;
12120;SDS011;6124;59.460;17.908;2023-04-24T11:04:28;2.80;;;2.50;;
12120;SDS011;6124;59.460;17.908;2023-04-24T11:06:56;3.20;;;2.70;;
12120;SDS011;6124;59.460;17.908;2023-04-24T11:09:27;5.50;;;2.83;;
12120;SDS011;6124;59.460;17.908;2023-04-24T11:12:02;5.27;;;3.20;;
12120;SDS011;6124;59.460;17.908;2023-04-24T11:14:31;6.07;;;3.17;;
12120;SDS011;6124;59.460;17.908;2023-04-24T11:17:27;6.30;;;3.10;;
12120;SDS011;6124;59.460;17.908;2023-04-24T11:20:00;5.83;;;3.03;;
12120;SDS011;6124;59.460;17.908;2023-04-24T11:22:30;5.93;;;2.93;;
12120;SDS011;6124;59.460;17.908;2023-04-24T11:25:01;5.93;;;2.73;;
12120;SDS011;6124;59.460;17.908;2023-04-24T11:27:29;3.93;;;2.53;;
12120;SDS011;6124;59.460;17.908;2023-04-24T11:30:01;4.33;;;2.40;;
12120;SDS011;6124;59.460;17.908;2023-04-24T11:32:30;7.00;;;2.60;;
12120;SDS011;6124;59.460;17.908;2023-04-24T11:34:58;3.90;;;2.50;;
12120;SDS011;6124;59.460;17.908;2023-04-24T11:37:27;5.00;;;2.73;;
12120;SDS011;6124;59.460;17.908;2023-04-24T11:39:55;2.67;;;2.20;;
12120;SDS011;6124;59.460;17.908;2023-04-24T11:42:23;3.73;;;2.67;;
12120;SDS011;6124;59.460;17.908;2023-04-24T11:44:52;4.93;;;2.30;;
12120;SDS011;6124;59.460;17.908;2023-04-24T11:47:19;3.00;;;2.30;;
12120;SDS011;6124;59.460;17.908;2023-04-24T11:49:49;6.53;;;2.40;;
12120;SDS011;6124;59.460;17.908;2023-04-24T11:52:17;4.27;;;2.47;;
12120;SDS011;6124;59.460;17.908;2023-04-24T11:54:48;3.63;;;2.40;;
12120;SDS011;6124;59.460;17.908;2023-04-24T11:57:16;5.83;;;2.50;;
12120;SDS011;6124;59.460;17.908;2023-04-24T11:59:45;6.63;;;2.70;;
12120;SDS011;6124;59.460;17.908;2023-04-24T12:02:19;5.20;;;2.30;;
12120;SDS011;6124;59.460;17.908;2023-04-24T12:04:47;5.60;;;2.53;;
12120;SDS011;6124;59.460;17.908;2023-04-24T12:07:14;3.43;;;2.50;;
12120;SDS011;6124;59.460;17.908;2023-04-24T12:09:42;6.77;;;2.37;;
12120;SDS011;6124;59.460;17.908;2023-04-24T12:12:10;5.40;;;2.57;;
12120;SDS011;6124;59.460;17.908;2023-04-24T12:14:46;4.43;;;2.80;;
12120;SDS011;6124;59.460;17.908;2023-04-24T12:17:14;6.50;;;3.60;;
12120;SDS011;6124;59.460;17.908;2023-04-24T12:19:45;7.77;;;4.80;;
12120;SDS011;6124;59.460;17.908;2023-04-24T12:22:13;9.47;;;4.57;;
12120;SDS011;6124;59.460;17.908;2023-04-24T12:24:56;7.23;;;4.07;;
12120;SDS011;6124;59.460;17.908;2023-04-24T12:27:23;6.03;;;4.30;;
12120;SDS011;6124;59.460;17.908;2023-04-24T12:29:53;9.03;;;5.70;;
12120;SDS011;6124;59.460;17.908;2023-04-24T12:32:20;5.60;;;3.80;;
12120;SDS011;6124;59.460;17.908;2023-04-24T12:34:49;4.17;;;3.43;;
12120;SDS011;6124;59.460;17.908;2023-04-24T12:37:17;7.40;;;3.17;;
12120;SDS011;6124;59.460;17.908;2023-04-24T12:39:46;7.30;;;3.77;;
12120;SDS011;6124;59.460;17.908;2023-04-24T12:42:25;6.70;;;3.50;;
12120;SDS011;6124;59.460;17.908;2023-04-24T12:44:57;5.37;;;3.40;;
12120;SDS011;6124;59.460;17.908;2023-04-24T12:47:25;5.20;;;3.10;;
12120;SDS011;6124;59.460;17.908;2023-04-24T12:49:53;5.10;;;3.10;;
12120;SDS011;6124;59.460;17.908;2023-04-24T12:52:21;6.43;;;3.27;;
12120;SDS011;6124;59.460;17.908;2023-04-24T12:54:49;6.13;;;3.27;;
12120;SDS011;6124;59.460;17.908;2023-04-24T12:57:17;6.70;;;3.57;;
12120;SDS011;6124;59.460;17.908;2023-04-24T12:59:44;9.00;;;3.83;;
12120;SDS011;6124;59.460;17.908;2023-04-24T13:02:13;9.77;;;3.83;;
12120;SDS011;6124;59.460;17.908;2023-04-24T13:04:42;8.97;;;3.70;;
12120;SDS011;6124;59.460;17.908;2023-04-24T13:07:10;8.47;;;3.80;;
12120;SDS011;6124;59.460;17.908;2023-04-24T13:09:37;8.30;;;3.83;;
12120;SDS011;6124;59.460;17.908;2023-04-24T13:12:05;6.07;;;3.43;;
12120;SDS011;6124;59.460;17.908;2023-04-24T13:14:32;9.07;;;4.17;;
12120;SDS011;6124;59.460;17.908;2023-04-24T13:17:00;6.00;;;3.80;;
12120;SDS011;6124;59.460;17.908;2023-04-24T13:19:29;5.13;;;3.53;;
12120;SDS011;6124;59.460;17.908;2023-04-24T13:21:56;9.13;;;3.60;;
12120;SDS011;6124;59.460;17.908;2023-04-24T13:24:24;7.50;;;3.80;;
12120;SDS011;6124;59.460;17.908;2023-04-24T13:26:51;6.17;;;3.70;;
12120;SDS011;6124;59.460;17.908;2023-04-24T13:29:19;8.50;;;3.87;;
12120;SDS011;6124;59.460;17.908;2023-04-24T13:31:46;8.03;;;4.03;;
12120;SDS011;6124;59.460;17.908;2023-04-24T13:34:14;7.77;;;4.07;;
12120;SDS011;6124;59.460;17.908;2023-04-24T13:36:43;9.00;;;4.13;;
12120;SDS011;6124;59.460;17.908;2023-04-24T13:39:11;7.30;;;4.23;;
12120;SDS011;6124;59.460;17.908;2023-04-24T13:41:38;9.30;;;5.50;;
12120;SDS011;6124;59.460;17.908;2023-04-24T13:44:06;8.40;;;5.00;;
12120;SDS011;6124;59.460;17.908;2023-04-24T13:46:33;8.07;;;4.73;;
12120;SDS011;6124;59.460;17.908;2023-04-24T13:49:01;7.37;;;4.30;;
12120;SDS011;6124;59.460;17.908;2023-04-24T13:51:29;7.80;;;4.20;;
12120;SDS011;6124;59.460;17.908;2023-04-24T13:53:58;9.70;;;4.87;;
12120;SDS011;6124;59.460;17.908;2023-04-24T13:56:25;7.00;;;4.67;;
12120;SDS011;6124;59.460;17.908;2023-04-24T13:58:53;7.57;;;4.37;;
12120;SDS011;6124;59.460;17.908;2023-04-24T14:01:20;5.93;;;3.53;;
12120;SDS011;6124;59.460;17.908;2023-04-24T14:03:49;8.17;;;3.63;;
12120;SDS011;6124;59.460;17.908;2023-04-24T14:06:17;5.60;;;3.90;;
12120;SDS011;6124;59.460;17.908;2023-04-24T14:08:44;7.43;;;4.27;;
12120;SDS011;6124;59.460;17.908;2023-04-24T14:11:13;10.63;;;5.80;;
12120;SDS011;6124;59.460;17.908;2023-04-24T14:13:41;7.23;;;4.07;;
12120;SDS011;6124;59.460;17.908;2023-04-24T14:16:08;6.07;;;3.60;;
12120;SDS011;6124;59.460;17.908;2023-04-24T14:18:36;4.83;;;3.70;;
12120;SDS011;6124;59.460;17.908;2023-04-24T14:21:03;5.33;;;3.80;;
12120;SDS011;6124;59.460;17.908;2023-04-24T14:23:30;6.90;;;3.40;;
12120;SDS011;6124;59.460;17.908;2023-04-24T14:25:58;7.40;;;3.97;;
12120;SDS011;6124;59.460;17.908;2023-04-24T14:28:27;6.07;;;3.43;;
12120;SDS011;6124;59.460;17.908;2023-04-24T14:30:54;7.57;;;3.70;;
12120;SDS011;6124;59.460;17.908;2023-04-24T14:33:21;6.57;;;3.40;;
12120;SDS011;6124;59.460;17.908;2023-04-24T14:35:49;6.93;;;3.90;;
12120;SDS011;6124;59.460;17.908;2023-04-24T14:38:16;9.03;;;3.60;;
12120;SDS011;6124;59.460;17.908;2023-04-24T14:40:43;4.90;;;3.40;;
12120;SDS011;6124;59.460;17.908;2023-04-24T14:43:11;8.97;;;3.50;;
12120;SDS011;6124;59.460;17.908;2023-04-24T14:45:39;8.20;;;3.60;;
12120;SDS011;6124;59.460;17.908;2023-04-24T14:48:07;9.60;;;3.97;;
12120;SDS011;6124;59.460;17.908;2023-04-24T14:50:36;3.83;;;3.23;;
12120;SDS011;6124;59.460;17.908;2023-04-24T14:53:03;6.97;;;3.43;;
12120;SDS011;6124;59.460;17.908;2023-04-24T14:55:30;10.40;;;3.90;;